Time;durP1;ratioP1;P1;durP2;ratioP2;P2;SDS_P1;SDS_P2;PMS_P1;PMS_P2;Temp;Humidity;BMP_temperature;BMP_pressure;BME280_temperature;BME280_humidity;BME280_pressure;Samples;Min_cycle;Max_cycle;Signal;HPM_P1;HPM_P2
2022/06/08 00:00:23;;;;;;;3.30;1.75;;;14.20;99.90;;;;;;5082505;28;20047;-67
2022/06/08 00:02:55;;;;;;;3.08;2.05;;;14.10;99.90;;;;;;5103394;28;20118;-64
2022/06/08 00:05:21;;;;;;;1.92;1.60;;;14.10;99.90;;;;;;5103418;28;20048;-66
2022/06/08 00:07:47;;;;;;;;;;;14.10;99.90;;;;;;5104426;28;20047;-64
2022/06/08 00:10:15;;;;;;;2.95;1.73;;;14.10;99.90;;;;;;5103197;28;19954;-64
2022/06/08 00:12:41;;;;;;;2.17;1.98;;;14.10;99.90;;;;;;5103503;28;20043;-64
2022/06/08 00:15:08;;;;;;;2.30;1.88;;;14.00;99.90;;;;;;5103328;28;20027;-64
2022/06/08 00:17:39;;;;;;;2.00;1.80;;;14.00;99.90;;;;;;5091955;28;20051;-64
2022/06/08 00:20:12;;;;;;;1.88;1.75;;;14.00;99.90;;;;;;5090159;28;20036;-65
2022/06/08 00:22:44;;;;;;;2.65;1.58;;;14.00;99.90;;;;;;5089986;28;20048;-64
2022/06/08 00:25:20;;;;;;;3.42;2.00;;;13.90;99.90;;;;;;5089669;28;20123;-64
2022/06/08 00:27:49;;;;;;;1.70;1.50;;;13.80;99.90;;;;;;5088990;28;20040;-64
2022/06/08 00:30:17;;;;;;;1.92;1.73;;;13.80;99.90;;;;;;5085701;28;20055;-68
2022/06/08 00:32:45;;;;;;;1.70;1.48;;;13.80;99.90;;;;;;5088639;28;20044;-64
2022/06/08 00:35:11;;;;;;;2.63;1.52;;;13.80;99.90;;;;;;5089138;28;20036;-64
2022/06/08 00:37:37;;;;;;;;;;;13.80;99.90;;;;;;5089815;28;20540;-67
2022/06/08 00:40:04;;;;;;;3.00;1.48;;;13.80;99.90;;;;;;5089785;28;19927;-66
2022/06/08 00:42:30;;;;;;;1.75;1.45;;;13.70;99.90;;;;;;5089569;28;20075;-63
2022/06/08 00:45:01;;;;;;;1.92;1.35;;;13.60;99.90;;;;;;5089943;28;20036;-64
2022/06/08 00:47:52;;;;;;;1.50;1.33;;;13.70;99.90;;;;;;5084027;28;20071;-65
2022/06/08 00:50:31;;;;;;;1.52;1.27;;;13.70;99.90;;;;;;5087917;28;20051;-63
2022/06/08 00:52:58;;;;;;;1.50;1.40;;;13.70;99.90;;;;;;5084831;28;20424;-64
2022/06/08 00:55:27;;;;;;;2.70;1.30;;;13.70;99.90;;;;;;5089052;28;20118;-63
2022/06/08 00:57:59;;;;;;;3.38;1.27;;;13.70;99.90;;;;;;5088539;28;20043;-63
2022/06/08 01:00:31;;;;;;;1.65;1.40;;;13.70;99.90;;;;;;5088171;28;20118;-64
2022/06/08 01:02:57;;;;;;;3.83;1.60;;;13.70;99.90;;;;;;5089507;28;20097;-64
2022/06/08 01:05:31;;;;;;;1.77;1.48;;;13.70;99.90;;;;;;5087306;28;20093;-64
2022/06/08 01:08:05;;;;;;;2.30;1.40;;;13.70;99.90;;;;;;5088069;28;20105;-65
2022/06/08 01:10:40;;;;;;;1.58;1.30;;;13.60;99.90;;;;;;5088133;28;20082;-65
2022/06/08 01:13:05;;;;;;;1.67;1.58;;;13.60;99.90;;;;;;5088528;28;20802;-63
2022/06/08 01:15:32;;;;;;;;;;;13.60;99.90;;;;;;5089368;28;20954;-63
2022/06/08 01:17:58;;;;;;;2.40;1.55;;;13.60;99.90;;;;;;5082909;28;20053;-62
2022/06/08 01:20:24;;;;;;;;;;;13.60;99.90;;;;;;5089274;28;20119;-63
2022/06/08 01:22:50;;;;;;;2.05;1.33;;;13.60;99.90;;;;;;5089193;28;19916;-64
2022/06/08 01:25:16;;;;;;;1.85;1.25;;;13.60;99.90;;;;;;5088611;28;20048;-63
2022/06/08 01:27:47;;;;;;;;;;;13.60;99.90;;;;;;5089242;28;20075;-64
2022/06/08 01:30:21;;;;;;;1.95;1.52;;;13.50;99.90;;;;;;5066967;28;20023;-63
2022/06/08 01:33:02;;;;;;;1.85;1.65;;;13.50;99.90;;;;;;5068108;28;20052;-64
2022/06/08 01:35:51;;;;;;;3.28;2.03;;;13.50;99.90;;;;;;5068035;28;20044;-64
2022/06/08 01:38:38;;;;;;;2.38;2.03;;;13.40;99.90;;;;;;5088311;28;20122;-63
2022/06/08 01:41:26;;;;;;;2.00;1.80;;;13.40;99.90;;;;;;5088738;28;20044;-65
2022/06/08 01:44:08;;;;;;;2.20;2.00;;;13.40;99.90;;;;;;5088218;28;20253;-64
2022/06/08 01:46:42;;;;;;;2.78;2.30;;;13.40;99.90;;;;;;5087970;28;20044;-63
2022/06/08 01:49:21;;;;;;;2.90;2.60;;;13.40;99.90;;;;;;5084304;28;20060;-66
2022/06/08 01:52:35;;;;;;;4.30;2.97;;;13.40;99.90;;;;;;5076801;28;20047;-65
2022/06/08 01:55:18;;;;;;;5.85;3.80;;;13.40;99.90;;;;;;5088051;28;20106;-64
2022/06/08 01:57:59;;;;;;;6.50;5.00;;;13.40;99.90;;;;;;5087714;28;20043;-65
2022/06/08 02:00:33;;;;;;;5.90;5.30;;;13.40;99.90;;;;;;5087322;28;20119;-67
2022/06/08 02:03:12;;;;;;;6.13;5.15;;;13.40;99.90;;;;;;5087519;28;20048;-65
2022/06/08 02:05:41;;;;;;;6.15;5.32;;;13.40;99.90;;;;;;5073870;28;20044;-65
2022/06/08 02:08:23;;;;;;;6.25;5.55;;;13.40;99.90;;;;;;5087975;28;20039;-64
2022/06/08 02:11:06;;;;;;;6.47;5.43;;;13.40;99.90;;;;;;5087780;28;20523;-64
2022/06/08 02:13:41;;;;;;;8.55;6.60;;;13.40;99.90;;;;;;5066800;28;20044;-65
2022/06/08 02:16:13;;;;;;;6.88;5.55;;;13.40;99.90;;;;;;5066989;28;20098;-64
2022/06/08 02:19:20;;;;;;;7.93;6.43;;;13.40;99.90;;;;;;5083322;28;20032;-64
2022/06/08 02:21:53;;;;;;;7.90;6.68;;;13.40;99.90;;;;;;5064428;28;20048;-64
2022/06/08 02:24:30;;;;;;;8.80;6.63;;;13.40;99.90;;;;;;5067390;28;20052;-65
2022/06/08 02:27:01;;;;;;;9.43;7.18;;;13.30;99.90;;;;;;5072660;28;20119;-63
2022/06/08 02:29:38;;;;;;;11.18;8.15;;;13.20;99.90;;;;;;5087413;28;20134;-66
2022/06/08 02:35:01;;;;;;;8.35;7.03;;;13.20;99.90;;;;;;5087736;28;20072;-65
2022/06/08 02:37:33;;;;;;;9.20;7.28;;;13.30;99.90;;;;;;5087052;28;20531;-67
2022/06/08 02:40:11;;;;;;;9.27;7.57;;;13.20;99.90;;;;;;5087046;28;20384;-63
2022/06/08 02:42:44;;;;;;;8.95;7.28;;;13.20;99.90;;;;;;5086857;28;20048;-66
2022/06/08 02:45:47;;;;;;;11.23;7.50;;;13.20;99.90;;;;;;5087336;28;20048;-64
2022/06/08 02:48:14;;;;;;;11.95;7.40;;;13.20;99.90;;;;;;5057965;28;20054;-63
2022/06/08 02:50:54;;;;;;;14.40;8.13;;;13.20;99.90;;;;;;5078806;28;20133;-64
2022/06/08 02:53:20;;;;;;;10.35;7.35;;;13.10;99.90;;;;;;5084553;28;20522;-64
2022/06/08 02:55:48;;;;;;;10.07;8.48;;;13.10;99.90;;;;;;5076611;28;20056;-64
2022/06/08 02:58:40;;;;;;;9.52;7.57;;;13.10;99.90;;;;;;5078048;28;20098;-66
2022/06/08 03:01:15;;;;;;;10.13;7.95;;;13.10;99.90;;;;;;5086195;28;20028;-62
2022/06/08 03:03:52;;;;;;;10.00;7.78;;;13.10;99.90;;;;;;5087249;28;20036;-66
2022/06/08 03:06:25;;;;;;;13.32;8.32;;;13.10;99.90;;;;;;5084158;28;20090;-64
2022/06/08 03:08:56;;;;;;;11.30;8.50;;;13.10;99.90;;;;;;5086678;28;20552;-64
2022/06/08 03:11:25;;;;;;;11.98;8.25;;;13.10;99.90;;;;;;5087007;28;20071;-65
2022/06/08 03:14:02;;;;;;;11.90;8.82;;;13.10;99.90;;;;;;5086688;28;20036;-64
2022/06/08 03:16:49;;;;;;;13.25;9.63;;;13.10;99.90;;;;;;5087475;28;20469;-64
2022/06/08 03:19:16;;;;;;;10.60;8.23;;;13.10;99.90;;;;;;5084001;28;20127;-64
2022/06/08 03:21:42;;;;;;;11.40;8.52;;;13.10;99.90;;;;;;5086549;28;20511;-64
2022/06/08 03:24:07;;;;;;;;;;;13.00;99.90;;;;;;5087384;28;20044;-64
2022/06/08 03:26:39;;;;;;;12.23;9.18;;;13.00;99.90;;;;;;5086755;28;19920;-64
2022/06/08 03:29:05;;;;;;;14.25;8.98;;;13.00;99.90;;;;;;5087036;28;20127;-65
2022/06/08 03:31:31;;;;;;;;;;;13.00;99.90;;;;;;5086508;28;20131;-63
2022/06/08 03:33:57;;;;;;;12.00;8.32;;;13.00;99.90;;;;;;5086497;28;19919;-63
2022/06/08 03:36:22;;;;;;;;;;;13.10;99.90;;;;;;5087414;28;20059;-65
2022/06/08 03:38:48;;;;;;;14.55;9.45;;;13.20;99.90;;;;;;5086615;28;19916;-66
2022/06/08 03:41:13;;;;;;;;;;;13.30;99.90;;;;;;5087549;28;20496;-66
2022/06/08 03:43:39;;;;;;;10.98;7.88;;;13.40;99.90;;;;;;5086086;28;19920;-64
2022/06/08 03:46:05;;;;;;;;;;;13.60;99.90;;;;;;5087135;28;20040;-63
2022/06/08 03:48:33;;;;;;;9.80;7.55;;;13.60;99.90;;;;;;5081344;28;19916;-65
2022/06/08 03:50:59;;;;;;;11.13;9.02;;;13.90;99.90;;;;;;5086407;28;20036;-64
2022/06/08 03:53:34;;;;;;;12.13;9.38;;;13.90;99.90;;;;;;5087827;28;20044;-63
2022/06/08 03:56:04;;;;;;;13.32;9.15;;;13.90;99.90;;;;;;5090626;28;20040;-63
2022/06/08 03:58:31;;;;;;;11.52;9.18;;;13.80;99.90;;;;;;5087206;28;20047;-62
2022/06/08 04:00:57;;;;;;;10.10;7.70;;;13.70;99.90;;;;;;5089490;28;20605;-64
2022/06/08 04:03:24;;;;;;;15.93;9.15;;;13.70;99.90;;;;;;5069281;28;20044;-64
2022/06/08 04:05:49;;;;;;;11.10;8.20;;;13.70;99.90;;;;;;5070530;28;20041;-64
2022/06/08 04:08:15;;;;;;;;;;;13.70;99.90;;;;;;5079529;28;20036;-62
2022/06/08 04:10:41;;;;;;;12.80;10.30;;;13.80;99.90;;;;;;5089804;28;19923;-64
2022/06/08 04:13:06;;;;;;;;;;;13.80;99.90;;;;;;5090036;28;20047;-65
2022/06/08 04:15:44;;;;;;;12.18;8.82;;;13.90;99.90;;;;;;5083386;28;19950;-62
2022/06/08 04:18:17;;;;;;;12.57;9.20;;;13.90;99.90;;;;;;5084703;28;20067;-64
2022/06/08 04:20:47;;;;;;;11.82;8.75;;;13.90;99.90;;;;;;5081760;28;20123;-63
2022/06/08 04:23:13;;;;;;;14.40;9.35;;;13.90;99.90;;;;;;5089671;28;20044;-65
2022/06/08 04:25:41;;;;;;;12.80;9.50;;;13.80;99.90;;;;;;5068881;28;20095;-65
2022/06/08 04:28:06;;;;;;;10.70;9.35;;;13.80;99.90;;;;;;5073191;28;20055;-65
2022/06/08 04:30:32;;;;;;;;;;;13.70;99.90;;;;;;5081277;28;21031;-65
2022/06/08 04:32:58;;;;;;;14.82;8.98;;;13.70;99.90;;;;;;5088386;28;20485;-65
2022/06/08 04:35:25;;;;;;;11.38;9.20;;;14.00;99.90;;;;;;5089066;28;20043;-64
2022/06/08 04:37:52;;;;;;;13.73;8.82;;;14.10;99.90;;;;;;5089993;28;20036;-62
2022/06/08 04:40:18;;;;;;;15.43;8.82;;;14.00;99.90;;;;;;5087513;28;20047;-62
2022/06/08 04:42:43;;;;;;;;;;;14.00;99.90;;;;;;5089488;28;20181;-63
2022/06/08 04:45:09;;;;;;;12.23;8.98;;;13.90;99.90;;;;;;5085044;28;20014;-64
2022/06/08 04:47:36;;;;;;;11.45;8.65;;;13.90;99.90;;;;;;5085811;28;20461;-63
2022/06/08 04:50:03;;;;;;;10.32;8.32;;;13.90;99.90;;;;;;5079268;28;20044;-62
2022/06/08 04:52:29;;;;;;;9.48;7.95;;;14.00;99.90;;;;;;5080688;28;20037;-62
2022/06/08 04:54:54;;;;;;;;;;;14.20;99.90;;;;;;5084671;28;20036;-62
2022/06/08 04:57:20;;;;;;;9.38;6.85;;;14.40;99.90;;;;;;5085401;28;19916;-63
2022/06/08 04:59:45;;;;;;;;;;;14.60;99.90;;;;;;5086838;28;20526;-63
2022/06/08 05:02:11;;;;;;;6.72;5.80;;;14.70;99.90;;;;;;5084300;28;20002;-63
2022/06/08 05:04:36;;;;;;;;;;;14.80;99.90;;;;;;5089351;28;20047;-63
2022/06/08 05:07:03;;;;;;;7.00;5.68;;;14.90;99.90;;;;;;5085196;28;20663;-63
2022/06/08 05:09:28;;;;;;;13.32;5.68;;;15.10;99.90;;;;;;5087558;28;20036;-62
2022/06/08 05:11:54;;;;;;;;;;;15.30;99.90;;;;;;5088669;28;20043;-62
2022/06/08 05:14:20;;;;;;;8.38;5.65;;;15.50;99.90;;;;;;5087867;28;20407;-63
2022/06/08 05:16:45;;;;;;;;;;;15.40;99.90;;;;;;5087885;28;20083;-62
2022/06/08 05:19:11;;;;;;;8.98;5.22;;;15.30;99.90;;;;;;5083592;28;20720;-63
2022/06/08 05:21:37;;;;;;;;;;;15.10;99.90;;;;;;5088894;28;20048;-63
2022/06/08 05:24:03;;;;;;;12.30;4.82;;;14.90;99.90;;;;;;5087383;28;19930;-64
2022/06/08 05:26:29;;;;;;;7.30;4.60;;;14.80;99.90;;;;;;5081189;28;20204;-62
2022/06/08 05:28:54;;;;;;;;;;;14.80;99.90;;;;;;5083854;28;20564;-63
2022/06/08 05:31:20;;;;;;;8.95;5.22;;;14.80;99.90;;;;;;5085055;28;19916;-64
2022/06/08 05:33:46;;;;;;;;;;;14.60;99.90;;;;;;5089033;28;20123;-62
2022/06/08 05:36:11;;;;;;;6.28;4.63;;;14.70;99.90;;;;;;5087753;28;19919;-64
2022/06/08 05:38:37;;;;;;;5.90;4.60;;;14.70;99.90;;;;;;5086469;28;20036;-61
2022/06/08 05:41:02;;;;;;;;;;;14.60;99.90;;;;;;5084098;28;20063;-64
2022/06/08 05:43:29;;;;;;;8.40;4.43;;;14.60;99.90;;;;;;5083942;28;20306;-61
2022/06/08 05:45:55;;;;;;;4.97;3.75;;;14.70;99.90;;;;;;5087993;28;20123;-63
2022/06/08 05:48:20;;;;;;;;;;;14.70;99.90;;;;;;5080916;28;20119;-62
2022/06/08 05:50:46;;;;;;;5.53;4.00;;;14.70;99.90;;;;;;5082315;28;19924;-63
2022/06/08 05:53:12;;;;;;;;;;;14.70;99.90;;;;;;5084981;28;20029;-63
2022/06/08 05:55:38;;;;;;;5.80;3.97;;;14.70;99.90;;;;;;5076594;28;19962;-61
2022/06/08 05:58:03;;;;;;;;;;;14.70;99.90;;;;;;5088372;28;20475;-64
2022/06/08 06:00:32;;;;;;;5.28;3.08;;;14.70;99.90;;;;;;5087231;28;19916;-64
2022/06/08 06:02:59;;;;;;;4.55;3.20;;;14.70;99.90;;;;;;5088018;28;20028;-62
2022/06/08 06:05:32;;;;;;;4.65;2.97;;;14.70;99.90;;;;;;5087894;28;20040;-65
2022/06/08 06:07:59;;;;;;;4.85;3.45;;;14.80;99.90;;;;;;5088177;28;20136;-63
2022/06/08 06:10:28;;;;;;;4.40;3.00;;;14.80;99.90;;;;;;5085866;28;20574;-63
2022/06/08 06:12:54;;;;;;;3.88;3.03;;;14.80;99.90;;;;;;5081494;28;20676;-62
2022/06/08 06:15:21;;;;;;;;;;;14.80;99.90;;;;;;5087340;28;20047;-63
2022/06/08 06:17:47;;;;;;;3.20;2.40;;;14.80;99.90;;;;;;5081787;28;19938;-63
2022/06/08 06:20:12;;;;;;;;;;;14.90;99.90;;;;;;5078020;28;20044;-63
2022/06/08 06:22:39;;;;;;;4.68;2.30;;;15.10;99.90;;;;;;5086180;28;20075;-63
2022/06/08 06:25:07;;;;;;;6.65;2.30;;;15.20;99.90;;;;;;5087701;28;20093;-62
2022/06/08 06:27:33;;;;;;;2.65;2.15;;;15.30;99.90;;;;;;5087356;28;20048;-62
2022/06/08 06:29:59;;;;;;;4.88;2.15;;;15.30;99.90;;;;;;5087660;28;20051;-62
2022/06/08 06:32:27;;;;;;;;;;;15.40;99.90;;;;;;5087613;28;20036;-59
2022/06/08 06:34:54;;;;;;;3.88;1.50;;;15.60;99.90;;;;;;5088412;28;19920;-62
2022/06/08 06:37:20;;;;;;;2.88;1.20;;;15.70;99.90;;;;;;5083652;28;20130;-62
2022/06/08 06:39:45;;;;;;;;;;;15.70;99.90;;;;;;5067596;28;20488;-63
2022/06/08 06:42:17;;;;;;;3.13;1.20;;;15.70;99.90;;;;;;5085357;28;19916;-62
2022/06/08 06:44:43;;;;;;;4.35;1.35;;;15.80;99.90;;;;;;5087206;28;20115;-63
2022/06/08 06:47:09;;;;;;;4.22;0.95;;;15.80;99.90;;;;;;5081536;28;20416;-63
2022/06/08 06:49:35;;;;;;;;;;;16.00;99.90;;;;;;5079036;28;20040;-62
2022/06/08 06:52:01;;;;;;;4.47;1.08;;;16.50;99.90;;;;;;5077938;28;19920;-63
2022/06/08 06:54:26;;;;;;;;;;;16.80;99.90;;;;;;5082439;28;20659;-62
2022/06/08 06:56:52;;;;;;;1.52;0.98;;;16.70;99.90;;;;;;5076130;28;19919;-64
2022/06/08 06:59:17;;;;;;;2.15;0.90;;;16.70;99.90;;;;;;5087242;28;20598;-64
2022/06/08 07:01:43;;;;;;;2.72;1.10;;;16.80;99.90;;;;;;5085896;28;20044;-63
2022/06/08 07:04:08;;;;;;;;;;;16.90;99.90;;;;;;5087591;28;20061;-64
2022/06/08 07:06:34;;;;;;;3.85;2.00;;;16.90;99.90;;;;;;5085921;28;19965;-63
2022/06/08 07:08:59;;;;;;;;;;;17.00;99.90;;;;;;5084112;28;20028;-63
2022/06/08 07:11:32;;;;;;;3.65;1.73;;;17.10;99.90;;;;;;5087014;28;19920;-64
2022/06/08 07:14:00;;;;;;;6.32;1.50;;;17.10;99.90;;;;;;5086885;28;20079;-63
2022/06/08 07:16:26;;;;;;;2.45;1.98;;;17.20;99.90;;;;;;5086585;28;20444;-63
2022/06/08 07:18:52;;;;;;;3.65;2.20;;;17.20;99.90;;;;;;5081194;28;20043;-63
2022/06/08 07:21:17;;;;;;;;;;;17.30;99.90;;;;;;5086584;28;20499;-63
2022/06/08 07:23:43;;;;;;;6.50;1.63;;;17.20;99.90;;;;;;5086872;28;19927;-63
2022/06/08 07:26:09;;;;;;;;;;;17.40;99.90;;;;;;5087105;28;20048;-63
2022/06/08 07:28:35;;;;;;;2.10;1.50;;;17.50;99.90;;;;;;5089526;28;19916;-63
2022/06/08 07:31:01;;;;;;;;;;;17.50;99.90;;;;;;5090677;28;20040;-64
2022/06/08 07:33:27;;;;;;;4.72;2.50;;;17.50;99.90;;;;;;5091263;28;19916;-64
2022/06/08 07:35:54;;;;;;;3.30;2.60;;;17.50;99.90;;;;;;5092354;28;20036;-63
2022/06/08 07:38:20;;;;;;;7.50;2.92;;;17.40;99.90;;;;;;5090938;28;20055;-64
2022/06/08 07:40:46;;;;;;;4.45;2.63;;;17.30;99.90;;;;;;5091370;28;20480;-63
2022/06/08 07:43:12;;;;;;;;;;;17.30;99.90;;;;;;5091011;28;20028;-63
2022/06/08 07:45:37;;;;;;;3.92;2.78;;;17.40;99.90;;;;;;5091037;28;19915;-64
2022/06/08 07:50:47;;;;;;;7.43;1.85;;;17.50;99.90;;;;;;5082686;28;20040;-63
2022/06/08 07:53:13;;;;;;;;;;;17.80;99.90;;;;;;5091212;28;20050;-64
2022/06/08 07:55:38;;;;;;;5.50;2.00;;;18.20;99.90;;;;;;5090932;28;20064;-63
2022/06/08 07:58:04;;;;;;;;;;;18.30;99.90;;;;;;5090962;28;20040;-62
2022/06/08 08:00:30;;;;;;;1.92;1.40;;;18.20;99.90;;;;;;5089901;28;19966;-63
2022/06/08 08:02:56;;;;;;;2.13;1.70;;;18.10;99.90;;;;;;5090492;28;20051;-62
2022/06/08 08:05:22;;;;;;;;;;;18.30;99.90;;;;;;5091083;28;20070;-63
2022/06/08 08:07:49;;;;;;;3.47;1.75;;;18.70;99.90;;;;;;5090948;28;19924;-63
2022/06/08 08:10:21;;;;;;;2.90;2.30;;;19.10;99.90;;;;;;5090348;28;20081;-63
2022/06/08 08:12:47;;;;;;;5.30;2.10;;;19.50;99.90;;;;;;5088712;28;20120;-63
2022/06/08 08:15:13;;;;;;;2.78;1.60;;;20.10;99.90;;;;;;5090294;28;20039;-62
2022/06/08 08:17:39;;;;;;;2.80;1.80;;;20.50;99.40;;;;;;5085471;28;20501;-63
2022/06/08 08:20:05;;;;;;;4.68;2.58;;;21.10;98.80;;;;;;5090838;28;20072;-62
2022/06/08 08:22:31;;;;;;;3.03;1.80;;;21.00;98.40;;;;;;5090089;28;20692;-60
2022/06/08 08:24:56;;;;;;;2.17;1.50;;;20.70;99.20;;;;;;5090200;28;20036;-62
2022/06/08 08:27:22;;;;;;;3.28;1.33;;;20.60;99.00;;;;;;5089611;28;20615;-63
2022/06/08 08:29:48;;;;;;;2.15;1.45;;;20.20;99.30;;;;;;5090437;28;20060;-62
2022/06/08 08:32:13;;;;;;;3.58;1.20;;;19.90;97.50;;;;;;5090568;28;20465;-63
2022/06/08 08:34:39;;;;;;;2.47;1.17;;;20.20;97.80;;;;;;5090824;28;20036;-63
2022/06/08 08:37:05;;;;;;;2.05;1.10;;;21.00;96.30;;;;;;5091999;28;20044;-64
2022/06/08 08:39:30;;;;;;;1.80;0.90;;;22.10;94.50;;;;;;5089847;28;20040;-64
2022/06/08 08:45:05;;;;;;;0.77;0.50;;;23.00;90.00;;;;;;5088897;28;20032;-63
2022/06/08 08:47:59;;;;;;;1.58;0.60;;;23.60;87.80;;;;;;5083087;28;20063;-63
2022/06/08 08:50:30;;;;;;;4.68;0.70;;;23.40;84.90;;;;;;5078208;28;20044;-63
2022/06/08 08:53:23;;;;;;;3.10;1.00;;;22.80;84.60;;;;;;5081953;28;20075;-63
2022/06/08 08:56:03;;;;;;;2.17;1.20;;;22.50;88.10;;;;;;5089078;28;20640;-63
2022/06/08 08:58:41;;;;;;;2.17;0.80;;;22.10;88.90;;;;;;5078254;28;20032;-62
2022/06/08 09:01:17;;;;;;;2.78;0.70;;;21.80;89.90;;;;;;5088255;28;20036;-63
2022/06/08 09:03:46;;;;;;;3.53;0.90;;;21.80;92.90;;;;;;5083872;28;20589;-63
2022/06/08 09:06:22;;;;;;;2.17;0.70;;;21.80;91.30;;;;;;5088482;28;20729;-63
2022/06/08 09:08:54;;;;;;;2.78;1.48;;;20.90;91.10;;;;;;5078372;28;20036;-62
2022/06/08 09:11:22;;;;;;;6.35;1.20;;;20.30;93.70;;;;;;5088981;28;20106;-63
2022/06/08 09:14:06;;;;;;;3.28;1.20;;;19.80;94.40;;;;;;5084983;28;20090;-63
2022/06/08 09:16:41;;;;;;;3.03;1.00;;;19.50;95.10;;;;;;5087367;28;20679;-63
2022/06/08 09:19:24;;;;;;;1.20;0.90;;;19.30;95.80;;;;;;5084284;28;20654;-63
2022/06/08 09:21:53;;;;;;;3.97;1.02;;;19.30;97.40;;;;;;5068165;28;20263;-62
2022/06/08 09:24:36;;;;;;;1.83;0.80;;;19.00;97.50;;;;;;5077620;28;20032;-63
2022/06/08 09:27:16;;;;;;;1.10;0.90;;;19.00;97.80;;;;;;5080744;28;20051;-63
2022/06/08 09:29:52;;;;;;;1.52;1.10;;;19.00;98.30;;;;;;5077931;28;20504;-63
2022/06/08 09:32:40;;;;;;;3.65;1.13;;;18.90;98.80;;;;;;5079829;27;20040;-63
2022/06/08 09:35:16;;;;;;;3.65;1.80;;;18.70;98.80;;;;;;5091688;28;20733;-63
2022/06/08 09:37:42;;;;;;;13.57;2.03;;;18.60;99.80;;;;;;5082898;28;20043;-64
2022/06/08 09:43:09;;;;;;;3.97;1.25;;;18.60;99.90;;;;;;5086878;28;20036;-63
2022/06/08 09:45:38;;;;;;;3.28;1.55;;;18.50;99.20;;;;;;5094646;28;20024;-64
2022/06/08 09:54:01;;;;;;;1.75;0.80;;;18.80;99.90;;;;;;5077705;28;20048;-64
2022/06/08 09:56:41;;;;;;;1.08;0.77;;;19.00;99.90;;;;;;5095100;28;20055;-63
2022/06/08 09:59:27;;;;;;;0.90;0.70;;;19.00;99.20;;;;;;5089293;28;20033;-63
2022/06/08 10:02:10;;;;;;;3.20;0.90;;;18.90;98.30;;;;;;5088737;28;20050;-63
2022/06/08 10:04:58;;;;;;;5.97;1.30;;;18.90;97.20;;;;;;5092908;28;20047;-63
2022/06/08 10:07:47;;;;;;;1.30;0.77;;;19.00;97.90;;;;;;5086865;28;20047;-63
2022/06/08 10:10:32;;;;;;;0.95;0.60;;;19.00;96.60;;;;;;5076692;28;20040;-63
2022/06/08 10:13:02;;;;;;;4.32;0.90;;;18.90;96.70;;;;;;5066675;28;20041;-63
2022/06/08 10:15:41;;;;;;;2.35;0.93;;;18.90;98.00;;;;;;5079929;28;20044;-63
2022/06/08 10:18:20;;;;;;;1.20;0.60;;;19.30;97.70;;;;;;5075403;28;20051;-62
2022/06/08 10:21:16;;;;;;;2.30;0.70;;;19.50;97.20;;;;;;5068282;28;20048;-63
2022/06/08 10:23:50;;;;;;;1.52;0.63;;;19.20;96.00;;;;;;5063028;28;20080;-63
2022/06/08 10:26:25;;;;;;;1.35;1.00;;;19.20;96.70;;;;;;5085115;28;20093;-64
2022/06/08 10:28:53;;;;;;;2.03;0.98;;;19.00;96.70;;;;;;5103823;28;20531;-62
2022/06/08 10:31:25;;;;;;;2.45;0.75;;;18.90;97.50;;;;;;5070673;28;20036;-63
2022/06/08 10:34:12;;;;;;;1.05;0.70;;;18.90;97.30;;;;;;5053655;28;20099;-64
2022/06/08 10:36:38;;;;;;;0.75;0.57;;;18.90;97.80;;;;;;5052420;28;20043;-63
2022/06/08 10:39:05;;;;;;;2.30;0.80;;;18.90;98.20;;;;;;5057370;28;20424;-64
2022/06/08 10:44:42;;;;;;;2.03;0.80;;;18.70;98.20;;;;;;5055020;28;20140;-64
2022/06/08 10:47:18;;;;;;;2.38;0.57;;;18.70;98.60;;;;;;5051135;28;20041;-63
2022/06/08 10:49:49;;;;;;;0.70;0.70;;;18.60;98.70;;;;;;5056004;28;20136;-64
2022/06/08 10:52:18;;;;;;;1.60;0.80;;;18.60;99.10;;;;;;5066987;28;20040;-62
2022/06/08 10:54:55;;;;;;;1.92;0.65;;;18.40;98.50;;;;;;5066210;28;20489;-62
2022/06/08 10:57:36;;;;;;;2.55;0.80;;;18.40;98.40;;;;;;5059589;28;20573;-62
2022/06/08 11:00:20;;;;;;;1.58;0.85;;;18.30;98.90;;;;;;5052021;28;20374;-62
2022/06/08 11:03:03;;;;;;;2.67;0.55;;;18.20;98.70;;;;;;5066433;28;20052;-62
2022/06/08 11:05:31;;;;;;;4.45;0.60;;;18.10;98.20;;;;;;5085166;28;20044;-61
2022/06/08 11:08:06;;;;;;;4.85;1.13;;;18.00;97.70;;;;;;5083842;28;20083;-62
2022/06/08 11:10:44;;;;;;;2.03;0.70;;;18.00;97.90;;;;;;5084591;28;20040;-62
2022/06/08 11:13:25;;;;;;;1.77;0.55;;;17.90;97.90;;;;;;5076050;28;20040;-62
2022/06/08 11:15:59;;;;;;;4.28;1.70;;;17.80;97.80;;;;;;5082727;28;20048;-62
2022/06/08 11:18:49;;;;;;;3.80;0.68;;;17.70;98.40;;;;;;5077011;28;20913;-62
2022/06/08 11:21:14;;;;;;;2.67;0.60;;;17.80;98.60;;;;;;5075465;28;20119;-62
2022/06/08 11:23:40;;;;;;;;;;;17.80;98.70;;;;;;5087217;28;20127;-63
2022/06/08 11:26:12;;;;;;;4.70;1.70;;;17.80;98.40;;;;;;5086894;28;19931;-63
2022/06/08 11:28:42;;;;;;;3.97;1.10;;;17.70;98.00;;;;;;5086391;28;20044;-63
2022/06/08 11:31:26;;;;;;;1.83;0.60;;;17.60;98.40;;;;;;5086089;28;20036;-62
2022/06/08 11:33:57;;;;;;;3.38;0.73;;;17.70;98.70;;;;;;5087986;28;20512;-62
2022/06/08 11:36:47;;;;;;;4.28;0.73;;;17.80;98.30;;;;;;5078572;28;20051;-64
2022/06/08 11:39:45;;;;;;;1.65;0.70;;;17.90;98.90;;;;;;5087333;28;20532;-64
2022/06/08 11:42:22;;;;;;;1.48;0.50;;;18.00;98.40;;;;;;5086288;28;20060;-63
2022/06/08 11:44:50;;;;;;;5.50;0.75;;;18.10;98.30;;;;;;5092954;28;20110;-63
2022/06/08 11:47:28;;;;;;;1.10;0.73;;;18.20;98.10;;;;;;5092711;28;20461;-65
2022/06/08 11:49:58;;;;;;;2.00;0.60;;;18.40;98.40;;;;;;5086485;28;20087;-63
2022/06/08 11:52:34;;;;;;;2.47;1.13;;;18.50;98.50;;;;;;5080706;28;20094;-63
2022/06/08 11:55:17;;;;;;;1.85;0.90;;;18.50;98.30;;;;;;5075710;28;20036;-63
2022/06/08 11:57:54;;;;;;;3.15;0.85;;;18.40;99.30;;;;;;5086931;28;20105;-63
2022/06/08 12:00:30;;;;;;;2.00;1.13;;;18.30;99.40;;;;;;5087334;28;20446;-63
2022/06/08 12:03:01;;;;;;;1.48;0.77;;;18.30;99.40;;;;;;5068945;28;20068;-64
2022/06/08 12:05:31;;;;;;;1.88;0.85;;;18.30;99.80;;;;;;5085728;28;20715;-64
2022/06/08 12:08:08;;;;;;;4.05;1.20;;;18.30;99.90;;;;;;5069246;28;20044;-64
2022/06/08 12:10:35;;;;;;;6.07;1.13;;;18.30;99.90;;;;;;5065697;28;20482;-64
2022/06/08 12:13:02;;;;;;;4.80;1.00;;;18.30;99.50;;;;;;5065181;28;20052;-64
2022/06/08 12:15:36;;;;;;;2.20;0.90;;;18.30;99.90;;;;;;5069011;28;20043;-64
2022/06/08 12:18:34;;;;;;;1.98;0.93;;;18.30;99.90;;;;;;5073305;28;20041;-63
2022/06/08 12:21:20;;;;;;;3.70;1.50;;;18.40;99.90;;;;;;5081322;28;20062;-65
2022/06/08 12:24:04;;;;;;;4.22;1.63;;;18.40;99.70;;;;;;5077560;28;20073;-64
2022/06/08 12:26:42;;;;;;;4.53;1.20;;;18.40;99.70;;;;;;5082156;28;20049;-64
2022/06/08 12:29:23;;;;;;;3.35;1.45;;;18.30;99.70;;;;;;5090252;28;20027;-64
2022/06/08 12:32:20;;;;;;;4.97;1.40;;;18.30;99.80;;;;;;5071711;28;20467;-62
2022/06/08 12:34:48;;;;;;;3.78;1.88;;;18.20;99.90;;;;;;5080435;28;20255;-62
2022/06/08 12:37:28;;;;;;;2.55;1.35;;;18.20;99.90;;;;;;5082873;28;20044;-62
2022/06/08 12:40:16;;;;;;;5.90;1.48;;;17.90;99.90;;;;;;5069327;28;20477;-63
2022/06/08 12:42:47;;;;;;;6.47;1.55;;;17.20;99.90;;;;;;5079757;28;20042;-62
2022/06/08 12:45:34;;;;;;;4.82;1.40;;;16.70;99.90;;;;;;5084431;28;20052;-63
2022/06/08 12:48:16;;;;;;;;;;;16.40;99.90;;;;;;5088292;28;20044;-64
2022/06/08 12:50:42;;;;;;;2.80;1.17;;;16.40;99.90;;;;;;5081541;28;20524;-65
2022/06/08 12:53:09;;;;;;;6.40;1.38;;;16.50;99.90;;;;;;5075768;28;20150;-65
2022/06/08 12:55:39;;;;;;;4.07;1.48;;;16.60;99.90;;;;;;5092099;28;20048;-65
2022/06/08 12:58:08;;;;;;;2.45;1.02;;;16.60;99.90;;;;;;5074647;28;20136;-66
2022/06/08 13:00:47;;;;;;;4.22;0.90;;;16.50;99.90;;;;;;5078423;28;20036;-66
2022/06/08 13:03:19;;;;;;;6.28;1.20;;;16.60;99.90;;;;;;5081145;28;20032;-65
2022/06/08 13:05:44;;;;;;;2.53;1.30;;;16.50;99.90;;;;;;5083869;28;20059;-64
2022/06/08 13:08:15;;;;;;;;;;;16.60;99.90;;;;;;5097733;27;20086;-65
2022/06/08 13:10:41;;;;;;;5.07;1.20;;;16.60;99.90;;;;;;5077999;28;20400;-65
2022/06/08 13:13:09;;;;;;;;;;;16.60;99.90;;;;;;5078652;28;20044;-65
2022/06/08 13:15:39;;;;;;;2.10;0.85;;;16.50;99.90;;;;;;5079534;28;19920;-66
2022/06/08 13:18:06;;;;;;;2.10;0.85;;;16.40;99.90;;;;;;5076649;28;20031;-65
2022/06/08 13:20:37;;;;;;;7.38;1.45;;;16.40;99.90;;;;;;5077525;28;20036;-65
2022/06/08 13:23:03;;;;;;;3.25;0.98;;;16.30;99.90;;;;;;5072602;28;20036;-65
2022/06/08 13:25:29;;;;;;;;;;;16.30;99.90;;;;;;5077336;28;20805;-65
2022/06/08 13:27:55;;;;;;;2.60;1.15;;;16.20;99.90;;;;;;5074265;28;19943;-65
2022/06/08 13:30:25;;;;;;;2.75;0.82;;;16.10;99.90;;;;;;5077352;28;20040;-64
2022/06/08 13:32:51;;;;;;;4.57;1.00;;;16.10;99.90;;;;;;5078210;28;20072;-66
2022/06/08 13:35:17;;;;;;;;;;;16.00;99.90;;;;;;5076994;28;20064;-64
2022/06/08 13:37:45;;;;;;;4.43;1.35;;;16.00;99.90;;;;;;5078981;28;19953;-64
2022/06/08 13:40:21;;;;;;;2.40;1.10;;;16.00;99.90;;;;;;5076667;28;20080;-65